CA-0306 weather

CLOSED Rea Point Airport
Nunavut, Canada

Public forecast

Using degrees Celsius for public forecast. Weather courtesy of forecast.io.

METAR (pilot weather report)

Closest report is Resolute Bay Airport, 170.8 nm (316.3 km) E. Retrieved 2019/04/25 09:00 UTC (21 minutes ago):

CYRB 250900Z 10007KT 15SM IC SKC M28/M31 A2994 RMK SLP151

TAF (pilot weather forecast)

Closest forecast is Resolute Bay Airport, 170.8 nm (316.3 km) E. Retrieved 2019/04/25 06:42 UTC (3 hours ago):

TAF CYRB 250538Z 2506/2606 11006KT P6SM IC FEW030 FM251800 24008KT P6SM SCT100 RMK NXT FCST BY 251200Z